createdAt,value
2023-04-19T00:01:42.867Z,100594.76
2023-04-19T00:04:51.640Z,100594.39
2023-04-19T00:07:59.117Z,100582.63
2023-04-19T00:11:05.167Z,100581.93
2023-04-19T00:14:11.455Z,100580.89
2023-04-19T00:17:18.939Z,100577.61
2023-04-19T00:20:25.505Z,100573.02
2023-04-19T00:23:32.458Z,100578.11
2023-04-19T00:26:38.898Z,100579.80
2023-04-19T00:29:44.722Z,100572.30
2023-04-19T00:32:51.457Z,100575.32
2023-04-19T00:35:58.311Z,100569.35
2023-04-19T00:39:04.634Z,100565.58
2023-04-19T00:42:10.960Z,100566.02
2023-04-19T00:45:21.060Z,100565.35
2023-04-19T00:48:28.850Z,100571.12
2023-04-19T00:51:35.824Z,100565.99
2023-04-19T00:54:42.209Z,100559.13
2023-04-19T00:57:47.513Z,100553.65
2023-04-19T01:00:53.634Z,100562.98
2023-04-19T01:04:00.389Z,100554.25
2023-04-19T01:07:08.767Z,100550.48
2023-04-19T01:10:15.134Z,100541.41
2023-04-19T01:13:21.889Z,100539.00
2023-04-19T01:16:28.228Z,100542.02
2023-04-19T01:19:34.572Z,100540.44
2023-04-19T01:22:41.408Z,100537.71
2023-04-19T01:25:47.266Z,100534.64
2023-04-19T01:28:54.852Z,100527.12
2023-04-19T01:32:01.168Z,100532.08
2023-04-19T01:35:07.949Z,100527.44
2023-04-19T01:38:13.150Z,100534.41
2023-04-19T01:41:19.635Z,100532.37
2023-04-19T01:44:26.797Z,100537.30
2023-04-19T01:47:32.097Z,100531.13
2023-04-19T01:50:38.064Z,100533.52
2023-04-19T01:53:44.477Z,100535.54
2023-04-19T01:56:50.834Z,100533.50
2023-04-19T01:59:58.674Z,100541.84
2023-04-19T02:03:08.254Z,100540.10
2023-04-19T02:06:14.973Z,100534.31
2023-04-19T02:09:23.389Z,100525.64
2023-04-19T02:12:32.165Z,100527.34
2023-04-19T02:15:38.398Z,100520.19
2023-04-19T02:18:46.433Z,100524.61
2023-04-19T02:21:52.884Z,100513.70
2023-04-19T02:24:59.924Z,100512.01
2023-04-19T02:28:06.271Z,100510.27
2023-04-19T02:31:13.237Z,100503.62
2023-04-19T02:34:19.286Z,100510.59
2023-04-19T02:37:24.952Z,100504.42
2023-04-19T02:40:32.180Z,100511.40
2023-04-19T02:43:37.296Z,100512.77
2023-04-19T02:46:43.868Z,100508.00
2023-04-19T02:49:50.302Z,100507.78
2023-04-19T02:52:57.029Z,100514.10
2023-04-19T02:56:04.013Z,100514.44
2023-04-19T02:59:09.530Z,100506.64
2023-04-19T03:02:15.732Z,100513.97
2023-04-19T03:05:22.631Z,100503.77
2023-04-19T03:08:28.540Z,100509.13
2023-04-19T03:11:35.461Z,100511.00
2023-04-19T03:14:42.517Z,100504.58
2023-04-19T03:17:49.472Z,100506.33
2023-04-19T03:20:57.396Z,100504.33
2023-04-19T03:24:05.894Z,100497.28
2023-04-19T03:27:15.814Z,100503.79
2023-04-19T03:30:26.340Z,100502.16
2023-04-19T03:33:32.917Z,100502.22
2023-04-19T03:36:37.681Z,100503.11
2023-04-19T03:39:44.788Z,100493.78
2023-04-19T03:42:55.387Z,100499.13
2023-04-19T03:46:03.477Z,100497.14
2023-04-19T03:49:09.299Z,100495.78
2023-04-19T03:52:16.124Z,100498.19
2023-04-19T03:55:26.487Z,100493.09
2023-04-19T03:58:32.718Z,100494.13
2023-04-19T04:01:39.853Z,100494.17
2023-04-19T04:04:46.776Z,100490.08
2023-04-19T04:07:54.994Z,100494.05
2023-04-19T04:11:01.170Z,100488.63
2023-04-19T04:14:08.098Z,100485.59
2023-04-19T04:17:13.238Z,100484.56
2023-04-19T04:20:21.326Z,100483.23
2023-04-19T04:23:29.232Z,100476.92
2023-04-19T04:26:40.799Z,100475.72
2023-04-19T04:29:48.074Z,100467.38
2023-04-19T04:32:57.234Z,100468.78
2023-04-19T04:36:04.690Z,100468.98
2023-04-19T04:39:12.958Z,100465.21
2023-04-19T04:42:20.258Z,100465.60
2023-04-19T04:45:26.259Z,100463.06
2023-04-19T04:48:31.536Z,100475.17
2023-04-19T04:51:37.375Z,100463.88
2023-04-19T04:54:43.304Z,100470.34
2023-04-19T04:57:54.677Z,100474.59
2023-04-19T05:01:18.108Z,100475.09
2023-04-19T05:04:24.231Z,100477.09
2023-04-19T05:07:30.125Z,100476.38
2023-04-19T05:10:36.165Z,100485.94
2023-04-19T05:13:41.275Z,100481.11
2023-04-19T05:16:49.385Z,100476.78
2023-04-19T05:19:56.405Z,100473.82
2023-04-19T05:23:03.092Z,100479.41
2023-04-19T05:26:09.569Z,100473.41
2023-04-19T05:29:11.497Z,100468.56
2023-04-19T05:32:19.065Z,100460.75
2023-04-19T05:35:29.863Z,100465.66
2023-04-19T05:38:35.756Z,100474.11
2023-04-19T05:41:42.614Z,100473.34
2023-04-19T05:44:49.387Z,100470.22
2023-04-19T05:47:54.860Z,100471.03
2023-04-19T05:51:11.505Z,100465.98
2023-04-19T05:54:27.895Z,100472.19
2023-04-19T05:57:34.237Z,100473.94
2023-04-19T06:00:41.247Z,100476.58
2023-04-19T06:03:48.709Z,100479.03
2023-04-19T06:06:56.070Z,100480.98
2023-04-19T06:10:04.124Z,100475.90
2023-04-19T06:13:10.923Z,100484.19
2023-04-19T06:16:18.592Z,100486.43
2023-04-19T06:19:18.310Z,100489.18
2023-04-19T06:22:06.535Z,100481.05
2023-04-19T06:24:59.524Z,100485.17
2023-04-19T06:27:47.855Z,100483.95
2023-04-19T06:30:40.806Z,100490.23
2023-04-19T06:33:33.505Z,100492.98
2023-04-19T06:36:39.258Z,100490.55
2023-04-19T06:39:46.710Z,100489.97
2023-04-19T06:42:55.428Z,100486.03
2023-04-19T06:46:02.787Z,100488.98
2023-04-19T06:49:08.274Z,100491.73
2023-04-19T06:52:14.357Z,100489.42
2023-04-19T06:55:20.466Z,100495.94
2023-04-19T06:58:27.079Z,100489.89
2023-04-19T07:01:33.967Z,100493.91
2023-04-19T07:04:41.437Z,100497.63
2023-04-19T07:07:48.668Z,100499.68
2023-04-19T07:10:55.272Z,100494.48
2023-04-19T07:14:01.810Z,100499.99
2023-04-19T07:17:07.475Z,100505.82
2023-04-19T07:20:14.760Z,100496.73
2023-04-19T07:23:20.750Z,100499.13
2023-04-19T07:26:26.580Z,100494.61
2023-04-19T07:29:32.580Z,100504.08
2023-04-19T07:32:38.386Z,100497.80
2023-04-19T07:35:44.382Z,100496.21
2023-04-19T07:38:51.719Z,100492.89
2023-04-19T07:41:57.189Z,100484.09
2023-04-19T07:45:02.404Z,100489.48
2023-04-19T07:48:10.306Z,100484.23
2023-04-19T07:51:28.904Z,100486.73
2023-04-19T07:54:34.666Z,100496.48
2023-04-19T07:57:40.541Z,100492.00
2023-04-19T08:00:48.640Z,100491.84
2023-04-19T08:03:55.472Z,100493.95
2023-04-19T08:07:02.907Z,100493.45
2023-04-19T08:10:09.916Z,100484.85
2023-04-19T08:13:17.071Z,100493.81
2023-04-19T08:16:56.257Z,100493.37
2023-04-19T08:19:32.154Z,100490.30
2023-04-19T08:22:39.381Z,100495.92
2023-04-19T08:25:45.979Z,100494.77
2023-04-19T08:28:53.562Z,100495.42
2023-04-19T08:31:59.820Z,100500.86
2023-04-19T08:35:05.571Z,100497.91
2023-04-19T08:38:11.671Z,100499.29
2023-04-19T08:41:21.521Z,100492.30
2023-04-19T08:44:35.787Z,100491.25
2023-04-19T08:47:39.729Z,100500.61
2023-04-19T08:51:00.704Z,100498.05
2023-04-19T08:53:54.654Z,100500.83
2023-04-19T08:57:02.693Z,100487.38
2023-04-19T09:00:08.693Z,100471.32
2023-04-19T09:03:17.841Z,100481.86
2023-04-19T09:06:25.939Z,100476.33
2023-04-19T09:09:52.020Z,100472.27
2023-04-19T09:12:50.535Z,100468.83
2023-04-19T09:15:56.692Z,100473.63
2023-04-19T09:19:23.562Z,100468.70
2023-04-19T09:22:28.577Z,100471.06
2023-04-19T09:26:11.404Z,100470.07
2023-04-19T09:28:49.477Z,100456.35
2023-04-19T09:31:54.942Z,100461.88
2023-04-19T09:35:11.586Z,100470.26
2023-04-19T09:38:16.855Z,100464.78
2023-04-19T09:41:24.374Z,100462.21
2023-04-19T09:47:43.153Z,100461.30
2023-04-19T09:50:57.725Z,100469.91
2023-04-19T09:54:03.226Z,100471.70
2023-04-19T09:57:12.795Z,100469.33
2023-04-19T10:00:20.107Z,100471.09
2023-04-19T10:03:27.548Z,100463.38
2023-04-19T10:06:51.796Z,100467.95
2023-04-19T10:09:52.987Z,100471.89
2023-04-19T10:16:04.853Z,100472.11
2023-04-19T10:19:06.426Z,100475.82
2023-04-19T10:22:15.170Z,100475.41
2023-04-19T10:25:28.573Z,100466.08
2023-04-19T10:28:35.964Z,100472.18
2023-04-19T10:31:41.651Z,100471.66
2023-04-19T10:34:54.825Z,100476.49
2023-04-19T10:38:28.481Z,100479.64
2023-04-19T10:41:35.171Z,100483.91
2023-04-19T10:44:40.754Z,100486.83
2023-04-19T10:48:00.275Z,100477.87
2023-04-19T10:51:29.521Z,100482.92
2023-04-19T10:54:46.293Z,100490.07
2023-04-19T10:58:17.994Z,100488.16
2023-04-19T11:01:53.548Z,100484.75
2023-04-19T11:05:12.686Z,100474.58
2023-04-19T11:08:20.157Z,100485.63
2023-04-19T11:11:25.741Z,100469.48
2023-04-19T11:14:31.173Z,100465.80
2023-04-19T11:17:39.764Z,100476.69
2023-04-19T11:20:47.714Z,100472.45
2023-04-19T11:23:56.373Z,100469.38
2023-04-19T11:27:02.698Z,100469.68
2023-04-19T11:30:20.342Z,100465.12
2023-04-19T11:33:33.898Z,100470.33
2023-04-19T11:36:42.945Z,100459.73
2023-04-19T11:39:49.015Z,100456.45
2023-04-19T11:42:55.555Z,100453.19
2023-04-19T11:46:02.126Z,100436.53
2023-04-19T11:49:07.801Z,100439.24
2023-04-19T11:52:16.101Z,100438.05
2023-04-19T11:55:36.139Z,100435.31
2023-04-19T11:58:45.281Z,100437.59
2023-04-19T12:01:51.516Z,100427.13
2023-04-19T12:04:57.838Z,100415.52
2023-04-19T12:08:18.950Z,100405.92
2023-04-19T12:11:26.934Z,100412.25
2023-04-19T12:14:36.116Z,100416.86
2023-04-19T12:17:54.664Z,100409.42
2023-04-19T12:20:53.524Z,100409.61
2023-04-19T12:23:59.121Z,100403.52
2023-04-19T12:27:10.943Z,100399.67
2023-04-19T12:30:17.079Z,100401.00
2023-04-19T12:33:27.807Z,100397.63
2023-04-19T12:36:35.341Z,100392.77
2023-04-19T12:39:40.758Z,100393.19
2023-04-19T12:42:48.205Z,100393.41
2023-04-19T12:45:57.324Z,100403.11
2023-04-19T12:49:04.808Z,100396.71
2023-04-19T12:52:12.138Z,100394.39
2023-04-19T12:55:18.486Z,100402.89
2023-04-19T12:58:24.122Z,100404.90
2023-04-19T13:01:31.958Z,100404.30
2023-04-19T13:04:38.574Z,100407.64
2023-04-19T13:07:45.199Z,100401.96
2023-04-19T13:10:51.014Z,100399.59
2023-04-19T13:13:57.283Z,100401.17
2023-04-19T13:20:45.744Z,100396.85
2023-04-19T13:23:57.120Z,100404.69
2023-04-19T13:27:10.913Z,100401.52
2023-04-19T13:30:17.307Z,100402.67
2023-04-19T13:33:24.241Z,100405.97
2023-04-19T13:36:30.397Z,100412.40
2023-04-19T13:39:36.899Z,100406.25
2023-04-19T13:42:41.912Z,100412.31
2023-04-19T13:45:49.188Z,100419.14
2023-04-19T13:48:57.580Z,100410.55
2023-04-19T13:52:04.500Z,100425.91
2023-04-19T13:55:10.337Z,100426.20
2023-04-19T13:58:16.991Z,100434.05
2023-04-19T14:01:22.972Z,100432.92
2023-04-19T14:04:29.516Z,100436.59
2023-04-19T14:07:38.173Z,100431.30
2023-04-19T14:10:43.974Z,100430.25
2023-04-19T14:13:50.663Z,100428.55
2023-04-19T14:16:58.160Z,100428.34
2023-04-19T14:20:05.644Z,100427.96
2023-04-19T14:23:11.036Z,100432.12
2023-04-19T14:26:16.874Z,100425.98
2023-04-19T14:29:22.407Z,100434.20
2023-04-19T14:32:29.600Z,100432.00
2023-04-19T14:35:34.680Z,100432.87
2023-04-19T14:38:40.307Z,100432.83
2023-04-19T14:41:46.803Z,100438.03
2023-04-19T14:44:53.721Z,100430.58
2023-04-19T14:48:02.202Z,100427.69
2023-04-19T14:51:08.610Z,100426.00
2023-04-19T14:54:13.875Z,100430.44
2023-04-19T14:57:18.847Z,100423.73
2023-04-19T15:00:24.661Z,100424.16
2023-04-19T15:03:30.878Z,100427.35
2023-04-19T15:06:37.394Z,100423.31
2023-04-19T15:09:43.492Z,100423.94
2023-04-19T15:12:49.287Z,100421.30
2023-04-19T15:15:56.247Z,100425.86
2023-04-19T15:19:02.142Z,100425.23
2023-04-19T15:22:10.954Z,100423.11
2023-04-19T15:25:18.105Z,100419.86
2023-04-19T15:28:25.236Z,100417.75
2023-04-19T15:31:31.818Z,100411.70
2023-04-19T15:34:37.031Z,100415.08
2023-04-19T15:37:43.437Z,100407.13
2023-04-19T15:40:49.976Z,100406.05
2023-04-19T15:43:56.605Z,100404.88
2023-04-19T15:47:02.939Z,100407.22
2023-04-19T15:50:09.730Z,100410.51
2023-04-19T15:53:17.470Z,100414.78
2023-04-19T15:56:22.650Z,100405.26
2023-04-19T15:59:28.614Z,100407.70
2023-04-19T16:02:34.301Z,100401.81
2023-04-19T16:05:40.739Z,100411.45
2023-04-19T16:08:46.917Z,100400.20
2023-04-19T16:11:53.275Z,100405.27
2023-04-19T16:15:01.508Z,100407.77
2023-04-19T16:18:07.982Z,100404.11
2023-04-19T16:21:15.277Z,100400.68
2023-04-19T16:24:22.306Z,100407.80
2023-04-19T16:27:27.412Z,100405.52
2023-04-19T16:30:35.135Z,100408.41
2023-04-19T16:33:40.927Z,100405.52
2023-04-19T16:36:49.762Z,100411.35
2023-04-19T16:39:54.797Z,100405.98
2023-04-19T16:43:04.350Z,100408.70
2023-04-19T16:46:09.895Z,100422.52
2023-04-19T16:49:16.420Z,100426.20
2023-04-19T16:52:23.090Z,100428.29
2023-04-19T16:55:28.599Z,100423.50
2023-04-19T16:58:35.141Z,100422.76
2023-04-19T17:01:41.021Z,100430.61
2023-04-19T17:04:47.407Z,100428.84
2023-04-19T17:07:56.114Z,100428.60
2023-04-19T17:11:02.638Z,100438.61
2023-04-19T17:14:08.470Z,100439.58
2023-04-19T17:17:15.301Z,100438.79
2023-04-19T17:20:23.756Z,100437.80
2023-04-19T17:23:29.015Z,100446.23
2023-04-19T17:26:34.873Z,100448.64
2023-04-19T17:29:39.976Z,100448.61
2023-04-19T17:32:46.791Z,100451.77
2023-04-19T17:35:54.370Z,100445.25
2023-04-19T17:39:01.974Z,100451.61
2023-04-19T17:42:11.278Z,100449.56
2023-04-19T17:45:20.041Z,100450.30
2023-04-19T17:48:25.108Z,100457.52
2023-04-19T17:51:32.511Z,100462.02
2023-04-19T17:54:37.665Z,100453.97
2023-04-19T17:57:43.103Z,100464.64
2023-04-19T18:00:50.428Z,100465.20
2023-04-19T18:03:56.576Z,100468.72
2023-04-19T18:07:04.346Z,100468.55
2023-04-19T18:10:11.927Z,100465.99
2023-04-19T18:13:18.544Z,100467.05
2023-04-19T18:16:24.068Z,100469.12
2023-04-19T18:19:30.834Z,100470.00
2023-04-19T18:22:36.990Z,100475.69
2023-04-19T18:25:46.616Z,100479.99
2023-04-19T18:28:53.201Z,100477.75
2023-04-19T18:32:00.044Z,100481.23
2023-04-19T18:35:06.492Z,100480.94
2023-04-19T18:38:12.748Z,100471.02
2023-04-19T18:41:19.245Z,100474.16
2023-04-19T18:44:49.341Z,100476.64
2023-04-19T18:47:33.596Z,100473.23
2023-04-19T18:50:39.893Z,100475.70
2023-04-19T18:53:49.121Z,100477.79
2023-04-19T19:00:04.295Z,100476.53
2023-04-19T19:03:40.089Z,100482.75
2023-04-19T19:06:23.050Z,100471.34
2023-04-19T19:09:31.462Z,100479.80
2023-04-19T19:12:39.461Z,100466.59
2023-04-19T19:15:48.460Z,100465.09
2023-04-19T19:19:01.369Z,100466.83
2023-04-19T19:22:25.223Z,100461.89
2023-04-19T19:25:23.140Z,100455.22
2023-04-19T19:28:28.172Z,100463.09
2023-04-19T19:31:35.644Z,100454.59
2023-04-19T19:34:54.677Z,100454.23
2023-04-19T19:37:53.380Z,100437.64
2023-04-19T19:41:39.873Z,100437.65
2023-04-19T19:44:08.794Z,100434.27
2023-04-19T19:47:15.054Z,100435.49
2023-04-19T19:53:30.772Z,100429.87
2023-04-19T19:56:36.759Z,100438.13
2023-04-19T19:59:50.372Z,100434.20
2023-04-19T20:02:56.166Z,100431.50
2023-04-19T20:06:00.208Z,100430.99
2023-04-19T20:09:09.283Z,100427.78
2023-04-19T20:12:17.840Z,100432.39
2023-04-19T20:15:25.873Z,100424.03
2023-04-19T20:18:30.965Z,100424.03
2023-04-19T20:21:36.373Z,100426.63
2023-04-19T20:24:45.255Z,100416.50
2023-04-19T20:27:50.956Z,100417.55
2023-04-19T20:30:58.543Z,100413.58
2023-04-19T20:34:05.096Z,100409.62
2023-04-19T20:37:13.879Z,100413.40
2023-04-19T20:40:23.301Z,100407.95
2023-04-19T20:43:29.588Z,100401.14
2023-04-19T20:46:36.292Z,100393.61
2023-04-19T20:49:41.872Z,100396.34
2023-04-19T20:52:49.352Z,100392.23
2023-04-19T20:55:56.618Z,100381.64
2023-04-19T20:59:03.303Z,100378.58
2023-04-19T21:20:25.159Z,100339.09
2023-04-19T21:23:31.107Z,100333.43
2023-04-19T21:26:36.403Z,100337.90
2023-04-19T21:29:43.305Z,100325.25
2023-04-19T21:32:49.847Z,100325.25
2023-04-19T21:35:56.744Z,100320.10
2023-04-19T21:39:02.251Z,100313.26
2023-04-19T21:42:10.456Z,100318.08
2023-04-19T21:45:18.554Z,100309.73
2023-04-19T21:48:23.914Z,100310.27
2023-04-19T21:51:30.032Z,100297.11
2023-04-19T21:54:55.136Z,100292.00
2023-04-19T21:58:01.957Z,100297.65
2023-04-19T22:01:07.562Z,100280.55
2023-04-19T22:04:13.560Z,100282.42
2023-04-19T22:07:19.894Z,100277.45
2023-04-19T22:22:36.055Z,100263.12
2023-04-19T22:25:42.984Z,100247.74
2023-04-19T22:28:49.962Z,100242.92
2023-04-19T22:31:55.859Z,100246.02
2023-04-19T22:35:01.062Z,100241.91
2023-04-19T22:38:05.690Z,100228.77
2023-04-19T22:41:13.003Z,100232.52
2023-04-19T22:44:18.313Z,100223.09
2023-04-19T22:47:23.633Z,100222.40
2023-04-19T22:50:30.588Z,100215.20
2023-04-19T22:53:38.675Z,100213.14
2023-04-19T22:56:44.651Z,100207.81
2023-04-19T22:59:50.237Z,100206.95
2023-04-19T23:02:56.842Z,100199.10
2023-04-19T23:06:03.763Z,100191.98
2023-04-19T23:09:10.190Z,100195.91
2023-04-19T23:12:16.846Z,100191.12
2023-04-19T23:15:25.749Z,100189.42
2023-04-19T23:18:34.395Z,100193.67
2023-04-19T23:21:39.576Z,100194.71
2023-04-19T23:24:44.475Z,100183.41
2023-04-19T23:27:50.292Z,100175.89
2023-04-19T23:30:55.587Z,100187.02
2023-04-19T23:34:02.171Z,100175.92
2023-04-19T23:37:07.724Z,100180.72
2023-04-19T23:40:13.313Z,100176.97
2023-04-19T23:43:19.950Z,100182.44
2023-04-19T23:46:26.360Z,100170.63
2023-04-19T23:49:32.567Z,100176.43
2023-04-19T23:52:40.461Z,100168.58
2023-04-19T23:55:46.256Z,100176.42
2023-04-19T23:58:52.977Z,100174.52
